sensor_id;sensor_type;location;lat;lon;timestamp;pressure;altitude;pressure_sealevel;temperature;humidity
53940;BME280;39850;43.324;21.916;2022-07-29T00:17:16;991.0;;;21.9;86.0
53940;BME280;39850;43.324;21.916;2022-07-29T00:21:53;991.0;;;21.9;86.0
53940;BME280;39850;43.324;21.916;2022-07-29T00:26:29;991.0;;;22.4;86.0
53940;BME280;39850;43.324;21.916;2022-07-29T00:31:05;991.0;;;22.4;86.0
53940;BME280;39850;43.324;21.916;2022-07-29T00:35:41;991.0;;;22.6;85.0
53940;BME280;39850;43.324;21.916;2022-07-29T00:40:17;991.0;;;22.6;85.0
53940;BME280;39850;43.324;21.916;2022-07-29T00:44:54;991.0;;;22.7;84.0
53940;BME280;39850;43.324;21.916;2022-07-29T00:49:31;991.0;;;22.7;84.0
53940;BME280;39850;43.324;21.916;2022-07-29T00:54:08;991.0;;;22.7;84.0
53940;BME280;39850;43.324;21.916;2022-07-29T00:58:51;991.0;;;22.6;83.0
53940;BME280;39850;43.324;21.916;2022-07-29T01:03:29;991.0;;;22.6;83.0
53940;BME280;39850;43.324;21.916;2022-07-29T01:39:37;991.0;;;21.8;86.0
53940;BME280;39850;43.324;21.916;2022-07-29T01:44:43;991.0;;;21.8;86.0
53940;BME280;39850;43.324;21.916;2022-07-29T01:49:46;991.0;;;21.8;86.0
53940;BME280;39850;43.324;21.916;2022-07-29T01:54:53;991.0;;;21.8;87.0
53940;BME280;39850;43.324;21.916;2022-07-29T01:59:52;991.0;;;21.8;87.0
53940;BME280;39850;43.324;21.916;2022-07-29T02:04:46;991.0;;;21.6;87.0
53940;BME280;39850;43.324;21.916;2022-07-29T02:09:41;991.0;;;21.6;87.0
53940;BME280;39850;43.324;21.916;2022-07-29T02:14:45;991.0;;;21.4;88.0
53940;BME280;39850;43.324;21.916;2022-07-29T02:19:39;991.0;;;21.4;88.0
53940;BME280;39850;43.324;21.916;2022-07-29T02:24:30;991.0;;;21.4;88.0
53940;BME280;39850;43.324;21.916;2022-07-29T02:58:15;991.0;;;21.2;88.0
53940;BME280;39850;43.324;21.916;2022-07-29T03:03:12;991.0;;;21.2;88.0
53940;BME280;39850;43.324;21.916;2022-07-29T03:08:09;991.0;;;21.5;87.0
53940;BME280;39850;43.324;21.916;2022-07-29T03:12:50;991.0;;;21.5;87.0
53940;BME280;39850;43.324;21.916;2022-07-29T03:17:30;991.0;;;21.7;86.0
53940;BME280;39850;43.324;21.916;2022-07-29T03:22:09;991.0;;;21.7;86.0
53940;BME280;39850;43.324;21.916;2022-07-29T03:26:46;991.0;;;21.8;86.0
53940;BME280;39850;43.324;21.916;2022-07-29T03:31:22;991.0;;;21.8;86.0
53940;BME280;39850;43.324;21.916;2022-07-29T03:35:58;991.0;;;21.7;85.0
53940;BME280;39850;43.324;21.916;2022-07-29T03:40:56;991.0;;;21.7;85.0
53940;BME280;39850;43.324;21.916;2022-07-29T04:18:06;991.0;;;21.9;82.0
53940;BME280;39850;43.324;21.916;2022-07-29T04:22:43;991.0;;;21.9;82.0
53940;BME280;39850;43.324;21.916;2022-07-29T04:27:20;991.0;;;21.8;84.0
53940;BME280;39850;43.324;21.916;2022-07-29T04:31:57;991.0;;;21.8;84.0
53940;BME280;39850;43.324;21.916;2022-07-29T04:36:34;991.0;;;21.8;85.0
53940;BME280;39850;43.324;21.916;2022-07-29T04:41:11;991.0;;;21.8;85.0
53940;BME280;39850;43.324;21.916;2022-07-29T04:45:49;991.0;;;21.8;85.0
53940;BME280;39850;43.324;21.916;2022-07-29T04:50:27;991.0;;;21.8;85.0
53940;BME280;39850;43.324;21.916;2022-07-29T04:55:09;991.0;;;21.8;85.0
53940;BME280;39850;43.324;21.916;2022-07-29T04:59:46;991.0;;;21.8;86.0
53940;BME280;39850;43.324;21.916;2022-07-29T05:04:23;991.0;;;21.8;86.0
53940;BME280;39850;43.324;21.916;2022-07-29T05:36:41;991.0;;;23.6;72.0
53940;BME280;39850;43.324;21.916;2022-07-29T05:41:18;991.0;;;23.6;72.0
53940;BME280;39850;43.324;21.916;2022-07-29T05:45:55;992.0;;;23.6;71.0
53940;BME280;39850;43.324;21.916;2022-07-29T05:50:32;992.0;;;23.6;71.0
53940;BME280;39850;43.324;21.916;2022-07-29T05:55:10;992.0;;;23.6;71.0
53940;BME280;39850;43.324;21.916;2022-07-29T05:59:49;992.0;;;23.6;71.0
53940;BME280;39850;43.324;21.916;2022-07-29T06:04:27;992.0;;;23.6;71.0
53940;BME280;39850;43.324;21.916;2022-07-29T06:09:04;992.0;;;23.6;70.0
53940;BME280;39850;43.324;21.916;2022-07-29T06:13:40;992.0;;;23.6;70.0
53940;BME280;39850;43.324;21.916;2022-07-29T06:18:16;992.0;;;23.7;71.0
53940;BME280;39850;43.324;21.916;2022-07-29T06:22:53;992.0;;;23.7;71.0
53940;BME280;39850;43.324;21.916;2022-07-29T06:59:47;991.0;;;26.2;62.0
53940;BME280;39850;43.324;21.916;2022-07-29T07:04:24;991.0;;;26.2;62.0
53940;BME280;39850;43.324;21.916;2022-07-29T07:09:03;991.0;;;26.6;61.0
53940;BME280;39850;43.324;21.916;2022-07-29T07:13:40;991.0;;;26.6;61.0
53940;BME280;39850;43.324;21.916;2022-07-29T07:18:19;991.0;;;27.0;59.0
53940;BME280;39850;43.324;21.916;2022-07-29T07:22:56;991.0;;;27.0;59.0
53940;BME280;39850;43.324;21.916;2022-07-29T07:27:33;991.0;;;27.6;58.0
53940;BME280;39850;43.324;21.916;2022-07-29T07:32:10;991.0;;;27.6;58.0
53940;BME280;39850;43.324;21.916;2022-07-29T07:36:47;991.0;;;28.1;57.0
53940;BME280;39850;43.324;21.916;2022-07-29T07:41:25;991.0;;;28.1;57.0
53940;BME280;39850;43.324;21.916;2022-07-29T08:18:22;991.0;;;30.0;48.0
53940;BME280;39850;43.324;21.916;2022-07-29T08:22:59;991.0;;;30.0;48.0
53940;BME280;39850;43.324;21.916;2022-07-29T08:27:35;991.0;;;30.0;47.0
53940;BME280;39850;43.324;21.916;2022-07-29T08:32:12;991.0;;;30.0;47.0
53940;BME280;39850;43.324;21.916;2022-07-29T08:36:48;991.0;;;30.0;46.0
53940;BME280;39850;43.324;21.916;2022-07-29T08:41:26;991.0;;;30.0;46.0
53940;BME280;39850;43.324;21.916;2022-07-29T08:46:02;991.0;;;30.0;45.0
53940;BME280;39850;43.324;21.916;2022-07-29T08:50:46;991.0;;;30.0;45.0
53940;BME280;39850;43.324;21.916;2022-07-29T08:55:23;991.0;;;30.0;45.0
53940;BME280;39850;43.324;21.916;2022-07-29T09:00:08;991.0;;;30.1;45.0
53940;BME280;39850;43.324;21.916;2022-07-29T09:04:47;991.0;;;30.1;45.0
53940;BME280;39850;43.324;21.916;2022-07-29T09:37:42;991.0;;;30.8;43.0
53940;BME280;39850;43.324;21.916;2022-07-29T09:42:31;991.0;;;30.8;43.0
53940;BME280;39850;43.324;21.916;2022-07-29T09:47:08;990.0;;;30.8;42.0
53940;BME280;39850;43.324;21.916;2022-07-29T09:51:46;990.0;;;30.8;42.0
53940;BME280;39850;43.324;21.916;2022-07-29T09:56:42;990.0;;;30.8;42.0
53940;BME280;39850;43.324;21.916;2022-07-29T10:01:29;990.0;;;30.8;42.0
53940;BME280;39850;43.324;21.916;2022-07-29T10:06:12;990.0;;;30.9;40.0
53940;BME280;39850;43.324;21.916;2022-07-29T10:10:49;990.0;;;30.9;40.0
53940;BME280;39850;43.324;21.916;2022-07-29T10:15:39;990.0;;;30.9;40.0
53940;BME280;39850;43.324;21.916;2022-07-29T10:20:27;990.0;;;31.0;39.0
53940;BME280;39850;43.324;21.916;2022-07-29T10:25:08;990.0;;;31.0;39.0
53940;BME280;39850;43.324;21.916;2022-07-29T10:59:26;990.0;;;31.0;40.0
53940;BME280;39850;43.324;21.916;2022-07-29T11:04:03;990.0;;;31.0;40.0
53940;BME280;39850;43.324;21.916;2022-07-29T11:08:41;990.0;;;30.7;39.0
53940;BME280;39850;43.324;21.916;2022-07-29T11:13:51;990.0;;;30.7;39.0
53940;BME280;39850;43.324;21.916;2022-07-29T11:18:28;990.0;;;30.4;40.0
53940;BME280;39850;43.324;21.916;2022-07-29T11:23:30;990.0;;;30.4;40.0
53940;BME280;39850;43.324;21.916;2022-07-29T11:28:22;990.0;;;30.2;39.0
53940;BME280;39850;43.324;21.916;2022-07-29T11:32:59;990.0;;;30.2;39.0
53940;BME280;39850;43.324;21.916;2022-07-29T11:37:35;989.0;;;29.9;40.0
53940;BME280;39850;43.324;21.916;2022-07-29T11:42:49;989.0;;;29.9;40.0
53940;BME280;39850;43.324;21.916;2022-07-29T12:20:11;989.0;;;31.0;40.0
53940;BME280;39850;43.324;21.916;2022-07-29T12:24:48;989.0;;;31.0;40.0
53940;BME280;39850;43.324;21.916;2022-07-29T12:29:27;989.0;;;31.0;40.0
53940;BME280;39850;43.324;21.916;2022-07-29T12:34:05;989.0;;;31.0;40.0
53940;BME280;39850;43.324;21.916;2022-07-29T12:38:43;989.0;;;31.0;41.0
53940;BME280;39850;43.324;21.916;2022-07-29T12:43:26;989.0;;;31.0;41.0
53940;BME280;39850;43.324;21.916;2022-07-29T12:48:09;989.0;;;30.6;41.0
53940;BME280;39850;43.324;21.916;2022-07-29T12:52:48;989.0;;;30.6;41.0
53940;BME280;39850;43.324;21.916;2022-07-29T12:57:29;989.0;;;30.3;41.0
53940;BME280;39850;43.324;21.916;2022-07-29T13:02:22;989.0;;;30.3;41.0
53940;BME280;39850;43.324;21.916;2022-07-29T13:39:46;988.0;;;31.0;42.0
53940;BME280;39850;43.324;21.916;2022-07-29T13:44:22;988.0;;;31.0;42.0
53940;BME280;39850;43.324;21.916;2022-07-29T13:48:59;988.0;;;30.4;42.0
53940;BME280;39850;43.324;21.916;2022-07-29T13:53:35;988.0;;;30.4;42.0
53940;BME280;39850;43.324;21.916;2022-07-29T13:58:11;988.0;;;29.9;43.0
53940;BME280;39850;43.324;21.916;2022-07-29T14:02:48;988.0;;;29.9;43.0
53940;BME280;39850;43.324;21.916;2022-07-29T14:07:24;988.0;;;29.9;44.0
53940;BME280;39850;43.324;21.916;2022-07-29T14:12:01;988.0;;;29.9;44.0
53940;BME280;39850;43.324;21.916;2022-07-29T14:16:38;988.0;;;29.9;44.0
53940;BME280;39850;43.324;21.916;2022-07-29T14:21:14;988.0;;;29.9;45.0
53940;BME280;39850;43.324;21.916;2022-07-29T14:25:51;988.0;;;29.9;45.0
53940;BME280;39850;43.324;21.916;2022-07-29T14:58:11;988.0;;;30.0;44.0
53940;BME280;39850;43.324;21.916;2022-07-29T15:02:49;988.0;;;30.0;44.0
53940;BME280;39850;43.324;21.916;2022-07-29T15:07:26;988.0;;;30.0;44.0
53940;BME280;39850;43.324;21.916;2022-07-29T15:12:05;988.0;;;30.0;44.0
53940;BME280;39850;43.324;21.916;2022-07-29T15:16:43;988.0;;;30.0;44.0
53940;BME280;39850;43.324;21.916;2022-07-29T15:21:20;988.0;;;30.0;44.0
53940;BME280;39850;43.324;21.916;2022-07-29T15:25:57;988.0;;;30.0;44.0
53940;BME280;39850;43.324;21.916;2022-07-29T15:30:36;988.0;;;30.0;45.0
53940;BME280;39850;43.324;21.916;2022-07-29T15:35:13;988.0;;;30.0;45.0
53940;BME280;39850;43.324;21.916;2022-07-29T15:39:50;988.0;;;30.0;44.0
53940;BME280;39850;43.324;21.916;2022-07-29T15:44:27;988.0;;;30.0;44.0
53940;BME280;39850;43.324;21.916;2022-07-29T16:21:22;988.0;;;29.0;48.0
53940;BME280;39850;43.324;21.916;2022-07-29T16:25:58;988.0;;;29.0;48.0
53940;BME280;39850;43.324;21.916;2022-07-29T16:30:36;988.0;;;29.0;49.0
53940;BME280;39850;43.324;21.916;2022-07-29T16:35:13;988.0;;;29.0;49.0
53940;BME280;39850;43.324;21.916;2022-07-29T16:39:49;988.0;;;29.1;50.0
53940;BME280;39850;43.324;21.916;2022-07-29T16:44:25;988.0;;;29.1;50.0
53940;BME280;39850;43.324;21.916;2022-07-29T16:49:02;988.0;;;29.1;50.0
53940;BME280;39850;43.324;21.916;2022-07-29T16:53:39;988.0;;;29.1;50.0
53940;BME280;39850;43.324;21.916;2022-07-29T16:58:15;988.0;;;29.1;50.0
53940;BME280;39850;43.324;21.916;2022-07-29T17:02:52;988.0;;;29.1;50.0
53940;BME280;39850;43.324;21.916;2022-07-29T17:07:28;988.0;;;29.1;50.0
53940;BME280;39850;43.324;21.916;2022-07-29T17:39:51;988.0;;;27.7;55.0
53940;BME280;39850;43.324;21.916;2022-07-29T17:44:28;988.0;;;27.7;55.0
53940;BME280;39850;43.324;21.916;2022-07-29T17:49:06;988.0;;;27.4;56.0
53940;BME280;39850;43.324;21.916;2022-07-29T17:53:43;988.0;;;27.4;56.0
53940;BME280;39850;43.324;21.916;2022-07-29T17:58:21;988.0;;;27.1;56.0
53940;BME280;39850;43.324;21.916;2022-07-29T18:02:58;988.0;;;27.1;56.0
53940;BME280;39850;43.324;21.916;2022-07-29T18:07:35;988.0;;;27.1;56.0
53940;BME280;39850;43.324;21.916;2022-07-29T18:12:12;988.0;;;27.1;56.0
53940;BME280;39850;43.324;21.916;2022-07-29T18:16:49;988.0;;;27.1;56.0
53940;BME280;39850;43.324;21.916;2022-07-29T18:21:25;988.0;;;27.1;56.0
53940;BME280;39850;43.324;21.916;2022-07-29T18:26:04;988.0;;;27.1;56.0
53940;BME280;39850;43.324;21.916;2022-07-29T18:58:21;988.0;;;26.3;62.0
53940;BME280;39850;43.324;21.916;2022-07-29T19:02:57;988.0;;;26.3;62.0
53940;BME280;39850;43.324;21.916;2022-07-29T19:07:35;988.0;;;26.3;62.0
53940;BME280;39850;43.324;21.916;2022-07-29T19:12:12;988.0;;;25.8;63.0
53940;BME280;39850;43.324;21.916;2022-07-29T19:16:48;988.0;;;25.8;63.0
53940;BME280;39850;43.324;21.916;2022-07-29T19:21:25;989.0;;;25.5;65.0
53940;BME280;39850;43.324;21.916;2022-07-29T19:26:01;989.0;;;25.5;65.0
53940;BME280;39850;43.324;21.916;2022-07-29T19:30:38;989.0;;;25.4;66.0
53940;BME280;39850;43.324;21.916;2022-07-29T19:35:14;989.0;;;25.4;66.0
53940;BME280;39850;43.324;21.916;2022-07-29T19:39:51;989.0;;;25.5;66.0
53940;BME280;39850;43.324;21.916;2022-07-29T19:44:27;989.0;;;25.5;66.0
53940;BME280;39850;43.324;21.916;2022-07-29T20:21:26;989.0;;;24.9;65.0
53940;BME280;39850;43.324;21.916;2022-07-29T20:26:03;989.0;;;24.9;65.0
53940;BME280;39850;43.324;21.916;2022-07-29T20:30:41;989.0;;;24.5;66.0
53940;BME280;39850;43.324;21.916;2022-07-29T20:35:18;989.0;;;24.5;66.0
53940;BME280;39850;43.324;21.916;2022-07-29T20:39:55;989.0;;;24.1;65.0
53940;BME280;39850;43.324;21.916;2022-07-29T20:44:33;989.0;;;24.1;65.0
53940;BME280;39850;43.324;21.916;2022-07-29T20:49:11;989.0;;;23.8;66.0
53940;BME280;39850;43.324;21.916;2022-07-29T20:53:49;989.0;;;23.8;66.0
53940;BME280;39850;43.324;21.916;2022-07-29T20:58:26;989.0;;;23.5;65.0
53940;BME280;39850;43.324;21.916;2022-07-29T21:03:03;989.0;;;23.5;65.0
53940;BME280;39850;43.324;21.916;2022-07-29T21:07:40;989.0;;;23.5;65.0
53940;BME280;39850;43.324;21.916;2022-07-29T21:39:57;989.0;;;24.6;63.0
53940;BME280;39850;43.324;21.916;2022-07-29T21:44:34;989.0;;;24.6;63.0
53940;BME280;39850;43.324;21.916;2022-07-29T21:49:10;989.0;;;24.6;62.0
53940;BME280;39850;43.324;21.916;2022-07-29T21:53:46;989.0;;;24.6;62.0
53940;BME280;39850;43.324;21.916;2022-07-29T21:58:23;989.0;;;24.6;62.0
53940;BME280;39850;43.324;21.916;2022-07-29T22:03:05;989.0;;;24.6;62.0
53940;BME280;39850;43.324;21.916;2022-07-29T22:07:41;989.0;;;24.6;62.0
53940;BME280;39850;43.324;21.916;2022-07-29T22:12:18;989.0;;;24.9;62.0
53940;BME280;39850;43.324;21.916;2022-07-29T22:16:54;989.0;;;24.9;62.0
53940;BME280;39850;43.324;21.916;2022-07-29T22:21:31;989.0;;;25.3;62.0
53940;BME280;39850;43.324;21.916;2022-07-29T22:26:07;989.0;;;25.3;62.0
53940;BME280;39850;43.324;21.916;2022-07-29T23:03:01;989.0;;;23.9;65.0
53940;BME280;39850;43.324;21.916;2022-07-29T23:07:38;989.0;;;23.9;65.0
53940;BME280;39850;43.324;21.916;2022-07-29T23:12:15;989.0;;;23.7;66.0
53940;BME280;39850;43.324;21.916;2022-07-29T23:16:51;989.0;;;23.7;66.0
53940;BME280;39850;43.324;21.916;2022-07-29T23:21:28;989.0;;;23.5;66.0
53940;BME280;39850;43.324;21.916;2022-07-29T23:26:05;989.0;;;23.5;66.0
53940;BME280;39850;43.324;21.916;2022-07-29T23:30:43;989.0;;;23.5;66.0
53940;BME280;39850;43.324;21.916;2022-07-29T23:35:22;989.0;;;23.5;66.0
53940;BME280;39850;43.324;21.916;2022-07-29T23:40:00;989.0;;;23.5;66.0
53940;BME280;39850;43.324;21.916;2022-07-29T23:44:38;989.0;;;23.5;66.0
